createdAt,value
2023-04-27T00:01:46.736Z,95.80
2023-04-27T00:04:14.586Z,95.70
2023-04-27T00:06:42.247Z,95.80
2023-04-27T00:09:09.309Z,95.60
2023-04-27T00:11:36.358Z,95.80
2023-04-27T00:14:03.707Z,96.00
2023-04-27T00:16:30.975Z,96.40
2023-04-27T00:18:58.057Z,96.90
2023-04-27T00:21:27.768Z,97.10
2023-04-27T00:23:55.296Z,97.30
2023-04-27T00:26:22.711Z,97.40
2023-04-27T00:28:50.650Z,97.10
2023-04-27T00:31:19.129Z,97.50
2023-04-27T00:33:46.238Z,97.20
2023-04-27T00:36:13.520Z,97.00
2023-04-27T00:38:40.809Z,96.80
2023-04-27T00:41:09.931Z,96.80
2023-04-27T00:43:44.610Z,96.80
2023-04-27T00:46:13.914Z,97.00
2023-04-27T00:48:41.917Z,96.90
2023-04-27T00:51:09.136Z,96.50
2023-04-27T00:53:37.290Z,96.40
2023-04-27T00:56:06.624Z,96.60
2023-04-27T00:58:34.217Z,97.00
2023-04-27T01:01:01.742Z,97.40
2023-04-27T01:03:28.854Z,97.70
2023-04-27T01:05:56.929Z,97.90
2023-04-27T01:08:24.679Z,98.00
2023-04-27T01:10:52.089Z,98.40
2023-04-27T01:13:19.216Z,98.50
2023-04-27T01:15:46.182Z,98.30
2023-04-27T01:18:13.867Z,98.10
2023-04-27T01:20:42.424Z,97.50
2023-04-27T01:23:15.421Z,97.20
2023-04-27T01:25:44.043Z,97.00
2023-04-27T01:28:11.145Z,97.10
2023-04-27T01:30:38.207Z,97.00
2023-04-27T01:33:05.228Z,96.60
2023-04-27T01:35:32.326Z,96.70
2023-04-27T01:37:59.827Z,96.50
2023-04-27T01:40:26.832Z,96.60
2023-04-27T01:42:53.864Z,96.80
2023-04-27T01:45:22.245Z,96.90
2023-04-27T01:47:52.294Z,97.10
2023-04-27T01:50:19.710Z,97.10
2023-04-27T01:52:46.950Z,97.10
2023-04-27T01:55:15.547Z,97.10
2023-04-27T01:57:42.574Z,97.00
2023-04-27T02:00:11.208Z,97.30
2023-04-27T02:02:38.820Z,97.30
2023-04-27T02:05:06.850Z,97.30
2023-04-27T02:07:35.086Z,97.50
2023-04-27T02:10:02.412Z,97.70
2023-04-27T02:12:29.342Z,97.50
2023-04-27T02:14:56.426Z,97.50
2023-04-27T02:17:23.372Z,97.60
2023-04-27T02:19:50.331Z,97.70
2023-04-27T02:22:17.808Z,97.50
2023-04-27T02:24:44.813Z,97.80
2023-04-27T02:27:11.844Z,97.40
2023-04-27T02:29:40.439Z,97.50
2023-04-27T02:32:08.159Z,97.60
2023-04-27T02:34:35.300Z,97.90
2023-04-27T02:37:02.401Z,97.90
2023-04-27T02:39:29.571Z,97.60
2023-04-27T02:41:56.570Z,97.40
2023-04-27T02:44:23.615Z,97.20
2023-04-27T02:46:51.128Z,96.80
2023-04-27T02:49:18.274Z,96.80
2023-04-27T02:51:46.554Z,96.60
2023-04-27T02:54:14.724Z,96.60
2023-04-27T02:56:41.978Z,96.80
2023-04-27T02:59:09.140Z,96.70
2023-04-27T03:01:36.689Z,96.40
2023-04-27T03:04:06.705Z,96.20
2023-04-27T03:06:36.174Z,96.20
2023-04-27T03:09:03.857Z,95.70
2023-04-27T03:11:31.777Z,95.80
2023-04-27T03:14:02.978Z,95.90
2023-04-27T03:16:35.220Z,95.80
2023-04-27T03:19:02.183Z,95.90
2023-04-27T03:21:29.286Z,96.10
2023-04-27T03:23:57.334Z,95.50
2023-04-27T03:26:24.290Z,95.40
2023-04-27T03:28:51.397Z,95.00
2023-04-27T03:31:18.551Z,94.90
2023-04-27T03:33:45.646Z,94.80
2023-04-27T03:36:14.154Z,95.10
2023-04-27T03:38:42.066Z,94.90
2023-04-27T03:41:09.117Z,94.80
2023-04-27T03:43:37.562Z,94.70
2023-04-27T03:46:04.703Z,94.60
2023-04-27T03:48:32.400Z,94.30
2023-04-27T03:51:01.405Z,94.40
2023-04-27T03:53:28.439Z,94.60
2023-04-27T03:55:55.561Z,94.60
2023-04-27T03:58:22.674Z,94.60
2023-04-27T04:00:49.934Z,94.80
2023-04-27T04:03:17.083Z,95.10
2023-04-27T04:05:47.327Z,95.00
2023-04-27T04:08:14.711Z,95.00
2023-04-27T04:10:41.945Z,95.20
2023-04-27T04:13:10.002Z,95.40
2023-04-27T04:15:38.484Z,95.10
2023-04-27T04:18:05.818Z,94.80
2023-04-27T04:20:35.349Z,94.60
2023-04-27T04:23:02.320Z,94.40
2023-04-27T04:25:39.555Z,94.20
2023-04-27T04:28:06.713Z,94.10
2023-04-27T04:30:34.905Z,94.00
2023-04-27T04:33:01.909Z,93.90
2023-04-27T04:35:29.844Z,93.60
2023-04-27T04:37:56.875Z,93.60
2023-04-27T04:40:23.988Z,93.30
2023-04-27T04:42:51.221Z,93.40
2023-04-27T04:45:18.249Z,93.20
2023-04-27T04:47:45.238Z,93.20
2023-04-27T04:50:13.249Z,92.60
2023-04-27T04:52:41.175Z,92.50
2023-04-27T04:55:08.540Z,92.70
2023-04-27T04:57:36.103Z,92.30
2023-04-27T05:00:04.034Z,92.30
2023-04-27T05:02:31.306Z,92.80
2023-04-27T05:04:58.551Z,92.60
2023-04-27T05:07:25.757Z,92.50
2023-04-27T05:09:53.429Z,92.60
2023-04-27T05:12:21.710Z,92.50
2023-04-27T05:14:51.368Z,92.10
2023-04-27T05:17:18.512Z,92.20
2023-04-27T05:19:45.580Z,92.20
2023-04-27T05:22:12.573Z,92.40
2023-04-27T05:24:39.527Z,92.50
2023-04-27T05:27:06.613Z,92.60
2023-04-27T05:29:33.880Z,92.70
2023-04-27T05:32:02.746Z,93.00
2023-04-27T05:34:29.895Z,93.40
2023-04-27T05:36:57.067Z,93.20
2023-04-27T05:39:25.129Z,93.30
2023-04-27T05:41:56.947Z,93.50
2023-04-27T05:44:28.507Z,93.50
2023-04-27T05:46:58.516Z,92.70
2023-04-27T05:49:25.918Z,93.00
2023-04-27T05:51:53.827Z,93.20
2023-04-27T05:54:20.847Z,92.90
2023-04-27T05:56:47.968Z,92.80
2023-04-27T05:59:15.496Z,92.70
2023-04-27T06:01:42.952Z,92.30
2023-04-27T06:04:10.106Z,92.40
2023-04-27T06:06:37.250Z,92.30
2023-04-27T06:09:05.794Z,92.10
2023-04-27T06:11:32.730Z,92.10
2023-04-27T06:13:59.773Z,92.20
2023-04-27T06:16:28.435Z,91.50
2023-04-27T06:18:55.604Z,91.20
2023-04-27T06:21:22.660Z,90.80
2023-04-27T06:23:49.791Z,90.40
2023-04-27T06:26:18.432Z,88.60
2023-04-27T06:28:45.581Z,90.10
2023-04-27T06:31:13.948Z,89.50
2023-04-27T06:33:41.500Z,89.80
2023-04-27T06:36:08.851Z,90.00
2023-04-27T06:38:36.346Z,91.00
2023-04-27T06:41:03.422Z,90.50
2023-04-27T06:43:31.197Z,87.80
2023-04-27T06:45:58.264Z,87.90
2023-04-27T06:48:25.717Z,87.50
2023-04-27T06:50:52.778Z,88.00
2023-04-27T06:53:20.313Z,87.20
2023-04-27T06:55:48.583Z,86.10
2023-04-27T06:58:15.695Z,87.50
2023-04-27T07:00:44.069Z,87.40
2023-04-27T07:03:11.401Z,88.70
2023-04-27T07:05:38.852Z,88.70
2023-04-27T07:08:08.547Z,88.50
2023-04-27T07:10:37.313Z,89.20
2023-04-27T07:13:05.169Z,88.60
2023-04-27T07:15:33.257Z,87.10
2023-04-27T07:18:00.284Z,87.10
2023-04-27T07:20:27.346Z,87.60
2023-04-27T07:22:55.199Z,87.60
2023-04-27T07:25:22.772Z,87.10
2023-04-27T07:27:49.742Z,86.80
2023-04-27T07:30:18.199Z,85.80
2023-04-27T07:32:45.784Z,86.30
2023-04-27T07:35:15.315Z,84.00
2023-04-27T07:37:44.235Z,83.30
2023-04-27T07:40:16.750Z,83.80
2023-04-27T07:42:44.114Z,83.10
2023-04-27T07:45:11.311Z,82.30
2023-04-27T07:47:39.291Z,83.10
2023-04-27T07:50:10.609Z,81.10
2023-04-27T07:52:37.694Z,82.10
2023-04-27T07:55:04.930Z,81.60
2023-04-27T07:57:32.020Z,82.90
2023-04-27T07:59:59.168Z,81.50
2023-04-27T08:02:31.713Z,81.50
2023-04-27T08:05:02.685Z,78.90
2023-04-27T08:07:30.232Z,76.30
2023-04-27T08:09:57.543Z,77.50
2023-04-27T08:12:24.494Z,73.30
2023-04-27T08:14:51.748Z,70.70
2023-04-27T08:17:19.750Z,72.00
2023-04-27T08:19:46.697Z,69.40
2023-04-27T08:22:13.704Z,67.80
2023-04-27T08:24:40.726Z,68.00
2023-04-27T08:27:09.355Z,65.90
2023-04-27T08:29:36.324Z,65.80
2023-04-27T08:32:04.762Z,66.50
2023-04-27T08:34:32.215Z,69.20
2023-04-27T08:36:59.293Z,70.30
2023-04-27T08:39:26.401Z,70.70
2023-04-27T08:41:53.600Z,67.30
2023-04-27T08:44:20.890Z,64.90
2023-04-27T08:46:49.289Z,71.20
2023-04-27T08:49:17.173Z,70.40
2023-04-27T08:51:45.148Z,66.00
2023-04-27T08:54:12.298Z,66.10
2023-04-27T08:56:41.040Z,66.00
2023-04-27T08:59:15.813Z,67.00
2023-04-27T09:01:49.882Z,61.20
2023-04-27T09:04:18.603Z,62.00
2023-04-27T09:06:46.736Z,62.70
2023-04-27T09:09:23.758Z,63.20
2023-04-27T09:11:51.598Z,63.30
2023-04-27T09:14:21.144Z,62.90
2023-04-27T09:16:59.118Z,63.80
2023-04-27T09:19:29.093Z,63.00
2023-04-27T09:22:08.452Z,61.50
2023-04-27T09:24:36.053Z,63.80
2023-04-27T09:27:03.416Z,61.50
2023-04-27T09:29:40.976Z,59.10
2023-04-27T09:32:20.784Z,58.90
2023-04-27T09:34:48.092Z,57.00
2023-04-27T09:37:16.549Z,56.80
2023-04-27T09:39:44.144Z,57.10
2023-04-27T09:42:13.240Z,56.70
2023-04-27T09:44:40.154Z,58.60
2023-04-27T09:47:08.268Z,58.40
2023-04-27T09:49:36.227Z,58.90
2023-04-27T09:52:03.416Z,58.00
2023-04-27T09:54:33.915Z,56.50
2023-04-27T09:57:07.628Z,56.80
2023-04-27T09:59:58.728Z,55.50
2023-04-27T10:02:28.572Z,54.00
2023-04-27T10:05:23.935Z,53.40
2023-04-27T10:07:54.322Z,55.10
2023-04-27T10:10:21.541Z,53.40
2023-04-27T10:13:04.155Z,56.40
2023-04-27T10:15:32.797Z,57.60
2023-04-27T10:18:05.435Z,56.90
2023-04-27T10:20:36.433Z,55.90
2023-04-27T10:23:03.990Z,55.80
2023-04-27T10:25:40.924Z,56.10
2023-04-27T10:28:15.620Z,55.10
2023-04-27T10:30:49.586Z,53.30
2023-04-27T10:33:18.737Z,55.10
2023-04-27T10:35:59.051Z,55.00
2023-04-27T10:38:30.848Z,54.50
2023-04-27T10:41:02.299Z,55.70
2023-04-27T10:43:31.415Z,54.30
2023-04-27T10:46:27.878Z,56.00
2023-04-27T10:48:56.014Z,57.20
2023-04-27T10:51:25.017Z,58.70
2023-04-27T10:53:53.974Z,58.70
2023-04-27T10:56:21.210Z,57.80
2023-04-27T10:58:49.481Z,56.50
2023-04-27T11:01:29.626Z,55.60
2023-04-27T11:03:58.079Z,54.90
2023-04-27T11:06:25.217Z,54.80
2023-04-27T11:08:52.331Z,57.30
2023-04-27T11:11:20.688Z,56.80
2023-04-27T11:13:53.990Z,52.80
2023-04-27T11:16:21.129Z,54.30
2023-04-27T11:18:48.405Z,53.40
2023-04-27T11:21:18.184Z,52.70
2023-04-27T11:23:45.259Z,52.20
2023-04-27T11:26:18.333Z,56.60
2023-04-27T11:28:58.369Z,53.50
2023-04-27T11:31:26.365Z,55.30
2023-04-27T11:33:56.006Z,54.70
2023-04-27T11:36:24.628Z,55.00
2023-04-27T11:38:57.238Z,55.40
2023-04-27T11:41:34.010Z,56.80
2023-04-27T11:44:09.155Z,56.60
2023-04-27T11:46:41.186Z,54.90
2023-04-27T11:49:11.315Z,52.70
2023-04-27T11:51:41.824Z,51.60
2023-04-27T11:54:10.008Z,56.50
2023-04-27T11:56:37.228Z,55.10
2023-04-27T11:59:05.385Z,55.20
2023-04-27T12:01:38.197Z,54.90
2023-04-27T12:04:06.080Z,54.10
2023-04-27T12:06:33.853Z,53.20
2023-04-27T12:09:01.460Z,52.40
2023-04-27T12:11:28.696Z,54.00
2023-04-27T12:13:56.163Z,53.00
2023-04-27T12:16:23.726Z,53.20
2023-04-27T12:18:51.484Z,52.70
2023-04-27T12:21:19.040Z,50.80
2023-04-27T12:23:46.050Z,51.80
2023-04-27T12:26:15.006Z,52.20
2023-04-27T12:28:42.790Z,55.80
2023-04-27T12:31:16.681Z,53.60
2023-04-27T12:33:43.863Z,53.90
2023-04-27T12:36:10.904Z,53.70
2023-04-27T12:38:40.027Z,53.80
2023-04-27T12:41:07.217Z,55.40
2023-04-27T12:43:36.361Z,55.30
2023-04-27T12:46:04.220Z,56.60
2023-04-27T12:48:32.063Z,56.10
2023-04-27T12:51:02.912Z,55.60
2023-04-27T12:53:31.129Z,54.40
2023-04-27T12:56:00.990Z,53.10
2023-04-27T12:58:28.215Z,53.60
2023-04-27T13:00:57.916Z,53.30
2023-04-27T13:03:25.496Z,54.50
2023-04-27T13:05:54.266Z,54.70
2023-04-27T13:08:21.493Z,56.60
2023-04-27T13:10:49.498Z,59.30
2023-04-27T13:13:16.619Z,61.90
2023-04-27T13:15:43.963Z,60.20
2023-04-27T13:18:10.956Z,58.70
2023-04-27T13:20:38.054Z,56.40
2023-04-27T13:23:06.832Z,55.00
2023-04-27T13:25:35.332Z,57.80
2023-04-27T13:28:02.517Z,57.00
2023-04-27T13:30:32.074Z,57.00
2023-04-27T13:33:10.484Z,58.50
2023-04-27T13:35:46.064Z,57.00
2023-04-27T13:38:14.174Z,58.10
2023-04-27T13:40:41.418Z,55.70
2023-04-27T13:43:08.995Z,54.70
2023-04-27T13:45:36.422Z,53.00
2023-04-27T13:48:03.512Z,51.60
2023-04-27T13:50:31.973Z,52.80
2023-04-27T13:53:00.130Z,52.20
2023-04-27T13:55:27.163Z,53.50
2023-04-27T13:57:54.106Z,56.20
2023-04-27T14:00:21.297Z,55.70
2023-04-27T14:02:49.554Z,58.10
2023-04-27T14:05:16.643Z,57.50
2023-04-27T14:07:45.205Z,60.70
2023-04-27T14:10:12.331Z,55.70
2023-04-27T14:12:39.399Z,56.40
2023-04-27T14:15:07.092Z,56.20
2023-04-27T14:17:36.160Z,55.30
2023-04-27T14:20:04.718Z,54.80
2023-04-27T14:22:35.995Z,55.90
2023-04-27T14:25:03.195Z,54.90
2023-04-27T14:27:30.258Z,53.50
2023-04-27T14:29:57.209Z,56.90
2023-04-27T14:32:24.292Z,56.30
2023-04-27T14:34:52.529Z,55.20
2023-04-27T14:37:21.584Z,57.70
2023-04-27T14:39:49.595Z,55.50
2023-04-27T14:42:16.580Z,55.80
2023-04-27T14:44:43.602Z,54.70
2023-04-27T14:47:10.981Z,54.70
2023-04-27T14:49:38.218Z,54.90
2023-04-27T14:52:06.861Z,55.70
2023-04-27T14:54:35.864Z,56.40
2023-04-27T14:57:04.720Z,56.10
2023-04-27T14:59:33.067Z,54.80
2023-04-27T15:02:00.684Z,55.60
2023-04-27T15:04:29.452Z,55.60
2023-04-27T15:06:56.706Z,56.30
2023-04-27T15:09:23.728Z,55.40
2023-04-27T15:11:52.884Z,53.50
2023-04-27T15:14:20.094Z,53.10
2023-04-27T15:16:47.159Z,52.30
2023-04-27T15:19:15.886Z,55.30
2023-04-27T15:21:43.429Z,55.00
2023-04-27T15:24:10.427Z,56.90
2023-04-27T15:26:37.392Z,57.60
2023-04-27T15:29:04.621Z,59.60
2023-04-27T15:31:31.647Z,60.80
2023-04-27T15:33:58.777Z,64.10
2023-04-27T15:36:28.691Z,62.80
2023-04-27T15:38:56.109Z,61.10
2023-04-27T15:41:23.151Z,60.30
2023-04-27T15:43:52.676Z,60.50
2023-04-27T15:46:20.112Z,60.10
2023-04-27T15:48:47.311Z,61.10
2023-04-27T15:51:14.273Z,59.10
2023-04-27T15:53:41.421Z,58.20
2023-04-27T15:56:08.561Z,59.10
2023-04-27T15:58:35.713Z,57.60
2023-04-27T16:01:03.841Z,57.30
2023-04-27T16:03:31.120Z,56.30
2023-04-27T16:05:59.703Z,55.10
2023-04-27T16:08:28.187Z,54.80
2023-04-27T16:10:55.253Z,54.80
2023-04-27T16:13:23.230Z,53.10
2023-04-27T16:15:50.245Z,53.40
2023-04-27T16:18:20.053Z,53.60
2023-04-27T16:20:47.400Z,53.50
2023-04-27T16:23:14.839Z,52.50
2023-04-27T16:25:42.129Z,53.40
2023-04-27T16:28:09.036Z,52.40
2023-04-27T16:30:38.668Z,52.60
2023-04-27T16:33:06.041Z,51.60
2023-04-27T16:35:34.089Z,51.00
2023-04-27T16:38:01.427Z,48.60
2023-04-27T16:40:28.537Z,48.60
2023-04-27T16:42:55.731Z,49.40
2023-04-27T16:45:23.005Z,50.90
2023-04-27T16:47:49.971Z,52.40
2023-04-27T16:50:17.457Z,53.90
2023-04-27T16:52:44.980Z,54.20
2023-04-27T16:55:11.977Z,56.00
2023-04-27T16:57:38.920Z,56.90
2023-04-27T17:00:06.707Z,55.90
2023-04-27T17:02:33.838Z,56.30
2023-04-27T17:05:01.419Z,57.00
2023-04-27T17:07:32.845Z,57.90
2023-04-27T17:10:00.384Z,59.30
2023-04-27T17:12:27.711Z,60.50
2023-04-27T17:14:54.751Z,58.70
2023-04-27T17:17:21.774Z,57.80
2023-04-27T17:19:48.856Z,62.00
2023-04-27T17:22:16.919Z,66.40
2023-04-27T17:24:43.890Z,67.30
2023-04-27T17:27:11.547Z,66.00
2023-04-27T17:29:38.489Z,69.70
2023-04-27T17:32:05.905Z,70.80
2023-04-27T17:34:33.324Z,71.60
2023-04-27T17:37:00.335Z,71.60
2023-04-27T17:39:27.430Z,71.50
2023-04-27T17:41:55.338Z,70.10
2023-04-27T17:44:22.422Z,71.50
2023-04-27T17:46:51.265Z,71.50
2023-04-27T17:49:19.446Z,73.60
2023-04-27T17:51:47.302Z,75.70
2023-04-27T17:54:14.273Z,75.30
2023-04-27T17:56:41.499Z,76.30
2023-04-27T17:59:11.425Z,77.20
2023-04-27T18:01:38.688Z,79.20
2023-04-27T18:04:07.500Z,80.90
2023-04-27T18:06:34.681Z,82.10
2023-04-27T18:09:01.884Z,83.80
2023-04-27T18:11:29.277Z,83.40
2023-04-27T18:13:58.047Z,82.50
2023-04-27T18:16:25.906Z,82.90
2023-04-27T18:18:52.878Z,83.30
2023-04-27T18:21:21.143Z,84.10
2023-04-27T18:23:48.216Z,84.30
2023-04-27T18:26:17.662Z,86.20
2023-04-27T18:28:44.738Z,87.00
2023-04-27T18:31:19.271Z,87.50
2023-04-27T18:33:47.253Z,88.20
2023-04-27T18:36:16.606Z,88.10
2023-04-27T18:38:43.951Z,89.00
2023-04-27T18:41:11.281Z,89.60
2023-04-27T18:43:38.263Z,90.00
2023-04-27T18:46:06.947Z,90.40
2023-04-27T18:48:34.915Z,90.70
2023-04-27T18:51:01.992Z,90.90
2023-04-27T18:53:29.011Z,91.50
2023-04-27T18:55:58.236Z,92.10
2023-04-27T18:58:25.370Z,92.30
2023-04-27T19:00:53.498Z,92.50
2023-04-27T19:03:20.705Z,92.70
2023-04-27T19:05:47.987Z,93.00
2023-04-27T19:08:16.897Z,93.10
2023-04-27T19:10:45.257Z,93.20
2023-04-27T19:13:12.430Z,93.30
2023-04-27T19:15:39.681Z,93.50
2023-04-27T19:18:11.039Z,93.50
2023-04-27T19:20:40.038Z,93.70
2023-04-27T19:23:09.997Z,93.80
2023-04-27T19:25:37.311Z,93.90
2023-04-27T19:28:04.810Z,94.00
2023-04-27T19:30:32.803Z,94.30
2023-04-27T19:32:59.829Z,94.50
2023-04-27T19:35:27.709Z,94.50
2023-04-27T19:37:55.001Z,94.70
2023-04-27T19:40:22.217Z,95.00
2023-04-27T19:42:49.910Z,95.30
2023-04-27T19:45:18.413Z,95.40
2023-04-27T19:47:48.334Z,95.70
2023-04-27T19:50:16.211Z,96.10
2023-04-27T19:52:43.373Z,96.20
2023-04-27T19:55:11.460Z,96.20
2023-04-27T19:57:38.874Z,96.50
2023-04-27T20:00:12.321Z,96.60
2023-04-27T20:02:40.343Z,96.80
2023-04-27T20:05:08.321Z,96.90
2023-04-27T20:07:35.947Z,96.90
2023-04-27T20:10:04.731Z,96.90
2023-04-27T20:12:51.439Z,97.00
2023-04-27T20:15:21.708Z,97.00
2023-04-27T20:17:50.191Z,97.40
2023-04-27T20:20:17.147Z,97.10
2023-04-27T20:22:44.463Z,97.40
2023-04-27T20:25:14.145Z,97.60
2023-04-27T20:27:41.958Z,97.50
2023-04-27T20:30:11.204Z,97.60
2023-04-27T20:32:40.934Z,97.70
2023-04-27T20:35:13.493Z,97.70
2023-04-27T20:37:44.316Z,97.70
2023-04-27T20:40:14.692Z,97.50
2023-04-27T20:42:43.627Z,97.60
2023-04-27T20:45:11.841Z,97.70
2023-04-27T20:47:38.879Z,97.00
2023-04-27T20:50:07.853Z,96.90
2023-04-27T20:52:35.174Z,96.70
2023-04-27T20:55:03.690Z,96.40
2023-04-27T20:57:31.146Z,96.20
2023-04-27T20:59:58.891Z,96.10
2023-04-27T21:02:26.774Z,96.00
2023-04-27T21:04:53.962Z,96.10
2023-04-27T21:07:21.039Z,96.10
2023-04-27T21:09:48.052Z,96.20
2023-04-27T21:12:17.325Z,96.30
2023-04-27T21:14:45.378Z,96.50
2023-04-27T21:17:15.278Z,96.50
2023-04-27T21:19:43.432Z,96.70
2023-04-27T21:22:10.552Z,96.90
2023-04-27T21:24:37.506Z,97.20
2023-04-27T21:27:04.606Z,97.20
2023-04-27T21:29:31.611Z,97.30
2023-04-27T21:31:58.680Z,97.30
2023-04-27T21:34:25.613Z,97.50
2023-04-27T21:36:54.244Z,97.60
2023-04-27T21:39:21.402Z,97.90
2023-04-27T21:41:48.297Z,98.00
2023-04-27T21:44:15.708Z,97.90
2023-04-27T21:46:42.910Z,98.00
2023-04-27T21:49:10.041Z,98.00
2023-04-27T21:51:37.057Z,98.00
2023-04-27T21:54:04.276Z,98.00
2023-04-27T21:56:31.333Z,98.30
2023-04-27T21:58:58.444Z,98.30
2023-04-27T22:01:27.831Z,98.50
2023-04-27T22:03:55.025Z,98.70
2023-04-27T22:06:22.174Z,99.00
2023-04-27T22:08:49.528Z,99.20
2023-04-27T22:11:16.796Z,99.30
2023-04-27T22:13:43.761Z,99.40
2023-04-27T22:16:13.157Z,99.60
2023-04-27T22:18:40.800Z,99.70
2023-04-27T22:21:08.523Z,99.90
2023-04-27T22:23:35.688Z,99.90
2023-04-27T22:26:04.254Z,99.80
2023-04-27T22:28:31.316Z,99.90
2023-04-27T22:30:58.344Z,99.90
2023-04-27T22:33:25.823Z,99.90
2023-04-27T22:35:53.075Z,99.90
2023-04-27T22:38:22.942Z,99.90
2023-04-27T22:40:50.173Z,99.90
2023-04-27T22:43:17.231Z,99.90
2023-04-27T22:45:44.220Z,99.90
2023-04-27T22:48:12.120Z,99.90
2023-04-27T22:50:40.633Z,99.90
2023-04-27T22:53:09.157Z,99.90
2023-04-27T22:55:36.126Z,99.90
2023-04-27T22:58:03.215Z,99.90
2023-04-27T23:00:31.913Z,99.90
2023-04-27T23:02:59.008Z,99.90
2023-04-27T23:05:26.521Z,99.90
2023-04-27T23:07:53.498Z,99.90
2023-04-27T23:10:20.909Z,99.90
2023-04-27T23:12:48.125Z,99.90
2023-04-27T23:15:15.318Z,99.90
2023-04-27T23:17:44.150Z,99.90
2023-04-27T23:20:24.510Z,99.90
2023-04-27T23:22:55.669Z,99.90
2023-04-27T23:25:22.765Z,99.90
2023-04-27T23:27:51.861Z,99.90
2023-04-27T23:30:20.056Z,99.90
2023-04-27T23:32:48.033Z,99.90
2023-04-27T23:35:16.642Z,99.90
2023-04-27T23:37:44.412Z,99.90
2023-04-27T23:40:12.487Z,99.90
2023-04-27T23:42:39.379Z,99.90
2023-04-27T23:45:06.870Z,99.90
2023-04-27T23:47:34.339Z,99.90
2023-04-27T23:50:03.015Z,99.90
2023-04-27T23:52:30.154Z,99.90
2023-04-27T23:54:58.115Z,99.90
2023-04-27T23:57:25.279Z,99.90
2023-04-27T23:59:52.303Z,99.90
